Time;durP1;ratioP1;P1;durP2;ratioP2;P2;SDS_P1;SDS_P2;PMS_P1;PMS_P2;Temp;Humidity;BMP_temperature;BMP_pressure;BME280_temperature;BME280_humidity;BME280_pressure;Samples;Min_cycle;Max_cycle;Signal;HPM_P1;HPM_P2
2023/07/11 00:01:00;;;;;;;9.68;2.80;;;;;;;;;;5030325;28;20120;-58
2023/07/11 00:03:28;;;;;;;9.18;2.30;;;;;;;;;;5031815;28;20458;-57
2023/07/11 00:06:01;;;;;;;11.40;2.80;;;;;;;;;;5023647;28;20045;-57
2023/07/11 00:08:28;;;;;;;7.13;2.30;;;;;;;;;;5025875;28;20774;-58
2023/07/11 00:10:56;;;;;;;8.00;2.40;;;;;;;;;;5038752;28;20052;-58
2023/07/11 00:13:24;;;;;;;9.77;2.53;;;;;;;;;;5032453;28;20406;-58
2023/07/11 00:15:58;;;;;;;6.53;1.95;;;;;;;;;;5028163;28;20041;-58
2023/07/11 00:18:26;;;;;;;8.60;2.13;;;;;;;;;;5040221;28;20444;-58
2023/07/11 00:20:53;;;;;;;8.67;2.90;;;;;;;;;;5043083;28;20119;-58
2023/07/11 00:23:23;;;;;;;7.63;2.28;;;;;;;;;;5010628;28;20510;-58
2023/07/11 00:25:53;;;;;;;7.05;2.17;;;;;;;;;;5035750;28;20607;-58
2023/07/11 00:28:20;;;;;;;6.88;1.85;;;;;;;;;;5034919;28;20098;-58
2023/07/11 00:30:48;;;;;;;7.15;1.90;;;;;;;;;;5015780;28;20102;-58
2023/07/11 00:33:16;;;;;;;6.77;1.93;;;;;;;;;;5026337;28;20152;-58
2023/07/11 00:35:44;;;;;;;8.40;1.77;;;;;;;;;;5020356;28;20391;-58
2023/07/11 00:38:12;;;;;;;7.88;1.42;;;;;;;;;;5019676;28;20040;-58
2023/07/11 00:40:42;;;;;;;6.20;1.70;;;;;;;;;;5029997;28;20881;-58
2023/07/11 00:43:11;;;;;;;6.70;1.70;;;;;;;;;;5023274;28;20047;-59
2023/07/11 00:45:57;;;;;;;6.20;1.63;;;;;;;;;;5032793;28;20041;-58
2023/07/11 00:48:25;;;;;;;3.90;1.02;;;;;;;;;;5016066;28;24474;-58
2023/07/11 00:50:54;;;;;;;7.10;1.35;;;;;;;;;;5027625;28;20127;-59
2023/07/11 00:53:22;;;;;;;4.47;1.13;;;;;;;;;;5019623;28;20045;-59
2023/07/11 00:55:52;;;;;;;4.60;1.20;;;;;;;;;;5038085;28;20046;-59
2023/07/11 00:58:20;;;;;;;4.27;1.23;;;;;;;;;;5019412;28;20470;-58
2023/07/11 01:00:49;;;;;;;4.78;0.98;;;;;;;;;;5035289;28;20056;-59
2023/07/11 01:03:19;;;;;;;6.03;1.50;;;;;;;;;;5032960;28;20083;-58
2023/07/11 01:05:46;;;;;;;3.33;0.80;;;;;;;;;;5024644;28;20055;-59
2023/07/11 01:08:14;;;;;;;4.22;1.00;;;;;;;;;;5006700;28;20112;-59
2023/07/11 01:10:42;;;;;;;4.93;1.00;;;;;;;;;;5027364;28;20407;-59
2023/07/11 01:13:11;;;;;;;5.50;1.00;;;;;;;;;;5034938;28;20036;-59
2023/07/11 01:15:38;;;;;;;3.90;1.00;;;;;;;;;;5002905;28;20051;-59
2023/07/11 01:18:06;;;;;;;4.13;1.00;;;;;;;;;;5028390;28;20123;-59
2023/07/11 01:20:34;;;;;;;3.88;0.90;;;;;;;;;;5021974;28;20144;-59
2023/07/11 01:23:03;;;;;;;4.47;0.90;;;;;;;;;;5020577;28;20622;-59
2023/07/11 01:25:31;;;;;;;3.95;0.82;;;;;;;;;;5027186;28;20041;-59
2023/07/11 01:27:59;;;;;;;4.18;0.60;;;;;;;;;;5019581;28;20040;-59
2023/07/11 01:30:26;;;;;;;3.45;0.90;;;;;;;;;;5014892;28;20041;-59
2023/07/11 01:32:54;;;;;;;4.82;0.63;;;;;;;;;;5021735;28;20044;-59
2023/07/11 01:35:22;;;;;;;2.90;0.70;;;;;;;;;;5029988;28;20116;-60
2023/07/11 01:37:50;;;;;;;3.30;0.50;;;;;;;;;;5028641;28;20029;-60
2023/07/11 01:40:19;;;;;;;3.28;0.70;;;;;;;;;;5002398;28;20041;-59
2023/07/11 01:42:48;;;;;;;4.18;0.70;;;;;;;;;;5033507;28;20386;-60
2023/07/11 01:45:16;;;;;;;3.08;0.40;;;;;;;;;;5023400;28;20048;-59
2023/07/11 01:47:44;;;;;;;3.50;0.90;;;;;;;;;;5029582;28;20501;-59
2023/07/11 01:50:12;;;;;;;3.25;0.73;;;;;;;;;;5024688;28;20072;-60
2023/07/11 01:52:39;;;;;;;3.60;0.40;;;;;;;;;;5013713;28;20044;-59
2023/07/11 01:55:09;;;;;;;3.28;0.73;;;;;;;;;;5031649;28;20044;-59
2023/07/11 01:57:38;;;;;;;3.83;0.90;;;;;;;;;;5008867;28;20049;-59
2023/07/11 02:00:07;;;;;;;2.90;0.60;;;;;;;;;;5033782;28;20124;-59
2023/07/11 02:02:34;;;;;;;3.03;0.75;;;;;;;;;;5028158;28;20653;-59
2023/07/11 02:05:02;;;;;;;3.28;0.75;;;;;;;;;;5025139;28;20072;-59
2023/07/11 02:07:30;;;;;;;4.13;0.68;;;;;;;;;;5029518;28;20036;-59
2023/07/11 02:09:58;;;;;;;3.45;1.02;;;;;;;;;;5031684;28;20453;-60
2023/07/11 02:12:26;;;;;;;4.27;0.67;;;;;;;;;;5034923;28;20603;-59
2023/07/11 02:14:55;;;;;;;4.03;0.50;;;;;;;;;;5027774;28;20044;-60
2023/07/11 02:17:22;;;;;;;3.30;0.85;;;;;;;;;;5028648;28;20493;-60
2023/07/11 02:19:50;;;;;;;4.22;0.98;;;;;;;;;;5013303;28;20128;-60
2023/07/11 02:22:18;;;;;;;2.88;0.68;;;;;;;;;;5027011;28;20790;-59
2023/07/11 02:24:46;;;;;;;5.93;1.20;;;;;;;;;;5038514;28;20215;-59
2023/07/11 02:27:13;;;;;;;3.85;0.75;;;;;;;;;;5015865;28;20052;-59
2023/07/11 02:29:41;;;;;;;4.93;1.05;;;;;;;;;;5027901;28;20064;-59
2023/07/11 02:32:10;;;;;;;4.40;0.90;;;;;;;;;;5025040;28;20369;-60
2023/07/11 02:34:38;;;;;;;4.40;0.70;;;;;;;;;;5028579;28;20033;-59
2023/07/11 02:37:06;;;;;;;5.00;0.90;;;;;;;;;;5026415;28;20040;-59
2023/07/11 02:39:33;;;;;;;5.13;1.17;;;;;;;;;;5033639;28;20037;-60
2023/07/11 02:42:04;;;;;;;6.15;1.00;;;;;;;;;;5012068;28;20293;-59
2023/07/11 02:44:32;;;;;;;4.85;1.13;;;;;;;;;;5046581;28;20049;-59
2023/07/11 02:47:00;;;;;;;3.70;0.63;;;;;;;;;;5010307;28;20077;-60
2023/07/11 02:49:29;;;;;;;6.70;0.93;;;;;;;;;;5026408;28;20483;-59
2023/07/11 02:51:57;;;;;;;4.10;0.70;;;;;;;;;;5013034;28;20498;-59
2023/07/11 02:54:27;;;;;;;5.18;1.27;;;;;;;;;;5045988;28;20127;-59
2023/07/11 02:56:55;;;;;;;5.03;0.82;;;;;;;;;;5019880;28;20044;-59
2023/07/11 02:59:23;;;;;;;5.47;1.00;;;;;;;;;;5032293;28;20045;-59
2023/07/11 03:01:51;;;;;;;4.00;0.50;;;;;;;;;;5034060;28;20551;-59
2023/07/11 03:04:18;;;;;;;5.57;1.17;;;;;;;;;;5038039;28;20041;-59
2023/07/11 03:06:47;;;;;;;5.97;1.30;;;;;;;;;;5014686;28;20226;-60
2023/07/11 03:09:15;;;;;;;3.55;0.70;;;;;;;;;;5051493;28;20427;-56
2023/07/11 03:11:43;;;;;;;4.63;1.15;;;;;;;;;;5021870;28;20045;-60
2023/07/11 03:14:10;;;;;;;3.80;1.13;;;;;;;;;;5033069;28;20050;-60
2023/07/11 03:16:39;;;;;;;4.35;0.82;;;;;;;;;;5016561;28;20036;-59
2023/07/11 03:19:07;;;;;;;3.55;0.73;;;;;;;;;;5007339;28;20037;-60
2023/07/11 03:21:34;;;;;;;7.53;1.05;;;;;;;;;;5019972;28;20948;-59
2023/07/11 03:24:03;;;;;;;4.60;0.90;;;;;;;;;;5034424;28;20040;-59
2023/07/11 03:26:31;;;;;;;4.40;1.13;;;;;;;;;;5014831;28;20635;-60
2023/07/11 03:28:59;;;;;;;9.98;1.20;;;;;;;;;;5027871;28;20610;-60
2023/07/11 03:31:27;;;;;;;7.03;0.90;;;;;;;;;;5029708;28;20496;-59
2023/07/11 03:33:54;;;;;;;7.60;1.30;;;;;;;;;;5025772;28;20041;-60
2023/07/11 03:36:23;;;;;;;5.75;1.05;;;;;;;;;;5005337;28;20044;-60
2023/07/11 03:38:51;;;;;;;7.80;1.60;;;;;;;;;;5034773;28;20056;-60
2023/07/11 03:41:20;;;;;;;9.57;1.15;;;;;;;;;;5020116;28;20055;-60
2023/07/11 03:43:47;;;;;;;6.88;1.33;;;;;;;;;;5028125;28;20049;-60
2023/07/11 03:46:15;;;;;;;7.07;1.65;;;;;;;;;;5022516;28;21040;-60
2023/07/11 03:48:43;;;;;;;7.90;1.67;;;;;;;;;;5031687;28;20378;-60
2023/07/11 03:51:10;;;;;;;5.60;1.23;;;;;;;;;;5017205;28;20041;-60
2023/07/11 03:53:38;;;;;;;7.30;2.17;;;;;;;;;;5015837;28;20036;-60
2023/07/11 03:56:07;;;;;;;9.00;1.30;;;;;;;;;;5033279;28;20032;-60
2023/07/11 03:58:36;;;;;;;6.60;1.30;;;;;;;;;;4998331;28;20049;-59
2023/07/11 04:01:05;;;;;;;8.55;1.50;;;;;;;;;;5026377;28;20040;-60
2023/07/11 04:03:32;;;;;;;8.87;1.27;;;;;;;;;;5026775;28;20568;-59
2023/07/11 04:06:00;;;;;;;7.65;1.40;;;;;;;;;;5020230;28;20049;-60
2023/07/11 04:08:28;;;;;;;5.70;1.35;;;;;;;;;;5027406;28;20758;-60
2023/07/11 04:10:56;;;;;;;7.43;1.63;;;;;;;;;;5026984;28;20037;-59
2023/07/11 04:13:23;;;;;;;8.00;1.50;;;;;;;;;;5018492;28;20045;-60
2023/07/11 04:15:53;;;;;;;8.80;1.40;;;;;;;;;;5027644;28;20040;-60
2023/07/11 04:18:20;;;;;;;8.48;1.25;;;;;;;;;;5029477;28;20045;-60
2023/07/11 04:20:48;;;;;;;6.72;1.48;;;;;;;;;;5025580;28;20036;-60
2023/07/11 04:23:16;;;;;;;5.78;1.45;;;;;;;;;;5025488;28;20369;-60
2023/07/11 04:25:46;;;;;;;11.27;1.58;;;;;;;;;;5031877;28;20036;-60
2023/07/11 04:28:14;;;;;;;8.33;1.73;;;;;;;;;;5027233;28;20075;-60
2023/07/11 04:30:42;;;;;;;8.07;1.50;;;;;;;;;;5035539;28;20037;-60
2023/07/11 04:33:11;;;;;;;11.02;1.83;;;;;;;;;;5025835;28;20044;-60
2023/07/11 04:35:39;;;;;;;7.28;1.77;;;;;;;;;;5027397;28;20048;-60
2023/07/11 04:38:07;;;;;;;7.38;1.63;;;;;;;;;;5027645;28;20041;-60
2023/07/11 04:40:35;;;;;;;7.43;1.73;;;;;;;;;;5011172;28;20049;-60
2023/07/11 04:43:03;;;;;;;8.75;1.80;;;;;;;;;;5034512;28;20044;-59
2023/07/11 04:45:30;;;;;;;9.30;1.73;;;;;;;;;;5018523;28;20048;-59
2023/07/11 04:47:58;;;;;;;9.30;1.70;;;;;;;;;;5019882;28;20045;-60
2023/07/11 04:50:27;;;;;;;10.25;1.90;;;;;;;;;;5010230;28;20063;-59
2023/07/11 04:52:55;;;;;;;10.87;1.90;;;;;;;;;;5029882;28;20040;-60
2023/07/11 04:55:23;;;;;;;9.48;1.63;;;;;;;;;;5011105;28;20956;-60
2023/07/11 04:57:54;;;;;;;12.93;2.55;;;;;;;;;;5032331;28;20048;-60
2023/07/11 05:00:23;;;;;;;8.30;1.52;;;;;;;;;;5020158;28;20547;-60
2023/07/11 05:02:50;;;;;;;7.43;2.00;;;;;;;;;;5027835;28;20041;-60
2023/07/11 05:05:18;;;;;;;9.63;1.90;;;;;;;;;;5009188;28;20057;-59
2023/07/11 05:07:47;;;;;;;13.23;2.28;;;;;;;;;;5027828;28;20041;-61
2023/07/11 05:10:15;;;;;;;11.52;1.70;;;;;;;;;;5024015;28;20033;-60
2023/07/11 05:12:43;;;;;;;10.50;1.60;;;;;;;;;;5039036;28;20338;-59
2023/07/11 05:15:11;;;;;;;13.23;2.85;;;;;;;;;;5023368;28;20163;-60
2023/07/11 05:17:41;;;;;;;10.10;2.10;;;;;;;;;;5018190;28;20103;-60
2023/07/11 05:20:09;;;;;;;7.75;1.50;;;;;;;;;;5027357;28;20081;-60
2023/07/11 05:22:37;;;;;;;11.90;2.20;;;;;;;;;;5025855;28;20048;-59
2023/07/11 05:25:07;;;;;;;9.80;2.22;;;;;;;;;;5027810;28;20040;-60
2023/07/11 05:27:37;;;;;;;10.48;2.22;;;;;;;;;;5034877;28;20110;-60
2023/07/11 05:30:05;;;;;;;6.47;1.50;;;;;;;;;;5035080;28;20041;-60
2023/07/11 05:32:33;;;;;;;7.90;2.10;;;;;;;;;;5017689;28;20250;-60
2023/07/11 05:35:01;;;;;;;8.05;1.70;;;;;;;;;;5036126;28;20098;-60
2023/07/11 05:37:28;;;;;;;11.55;2.45;;;;;;;;;;5028749;28;20055;-60
2023/07/11 05:39:56;;;;;;;9.10;2.20;;;;;;;;;;5023945;28;20045;-59
2023/07/11 05:42:25;;;;;;;10.40;1.97;;;;;;;;;;5018391;28;20045;-60
2023/07/11 05:44:54;;;;;;;11.25;2.33;;;;;;;;;;5038041;28;20045;-60
2023/07/11 05:47:22;;;;;;;6.60;1.83;;;;;;;;;;5023781;28;20048;-60
2023/07/11 05:49:50;;;;;;;10.48;1.90;;;;;;;;;;5028600;28;20041;-60
2023/07/11 05:52:18;;;;;;;8.32;2.00;;;;;;;;;;5020606;28;20488;-60
2023/07/11 05:54:45;;;;;;;11.93;1.83;;;;;;;;;;5035482;28;20055;-60
2023/07/11 05:57:13;;;;;;;9.45;2.10;;;;;;;;;;5021665;28;20036;-60
2023/07/11 05:59:42;;;;;;;9.48;2.25;;;;;;;;;;5041725;28;20416;-59
2023/07/11 06:02:10;;;;;;;8.63;2.17;;;;;;;;;;5017901;28;20045;-59
2023/07/11 06:04:38;;;;;;;12.63;2.00;;;;;;;;;;5032414;28;20056;-59
2023/07/11 06:07:08;;;;;;;13.33;3.07;;;;;;;;;;5026842;28;20442;-59
2023/07/11 06:09:38;;;;;;;10.27;2.05;;;;;;;;;;5046144;28;20056;-59
2023/07/11 06:12:06;;;;;;;8.52;2.10;;;;;;;;;;5032353;28;20048;-59
2023/07/11 06:14:34;;;;;;;12.75;2.22;;;;;;;;;;5020331;28;20422;-59
2023/07/11 06:17:03;;;;;;;12.30;2.08;;;;;;;;;;5026970;28;20066;-59
2023/07/11 06:19:31;;;;;;;7.00;2.00;;;;;;;;;;5030977;28;20051;-60
2023/07/11 06:21:59;;;;;;;8.52;2.17;;;;;;;;;;5030528;28;20062;-59
2023/07/11 06:24:27;;;;;;;11.48;2.53;;;;;;;;;;5025371;28;21180;-59
2023/07/11 06:26:55;;;;;;;13.00;2.00;;;;;;;;;;5029189;28;20044;-59
2023/07/11 06:29:22;;;;;;;10.50;2.08;;;;;;;;;;5023164;28;20489;-59
2023/07/11 06:31:50;;;;;;;9.87;2.30;;;;;;;;;;5027394;28;20061;-59
2023/07/11 06:34:19;;;;;;;11.52;2.75;;;;;;;;;;5045505;28;20168;-59
2023/07/11 06:36:47;;;;;;;10.35;2.58;;;;;;;;;;5038028;28;20046;-59
2023/07/11 06:39:15;;;;;;;15.93;2.05;;;;;;;;;;5039569;28;20032;-59
2023/07/11 06:41:42;;;;;;;11.25;3.35;;;;;;;;;;5038162;28;20488;-59
2023/07/11 06:44:10;;;;;;;10.00;2.33;;;;;;;;;;5029017;28;20036;-59
2023/07/11 06:46:38;;;;;;;13.10;2.72;;;;;;;;;;5030958;28;20040;-59
2023/07/11 06:49:05;;;;;;;10.65;2.30;;;;;;;;;;5022261;28;20048;-59
2023/07/11 06:51:34;;;;;;;14.48;2.58;;;;;;;;;;5040119;28;20072;-60
2023/07/11 06:54:02;;;;;;;11.95;2.40;;;;;;;;;;5031842;28;20688;-60
2023/07/11 06:56:32;;;;;;;11.20;2.97;;;;;;;;;;5032188;28;20052;-59
2023/07/11 06:59:00;;;;;;;9.13;2.25;;;;;;;;;;5033629;28;20059;-59
2023/07/11 07:01:29;;;;;;;11.32;2.58;;;;;;;;;;5026208;28;20044;-59
2023/07/11 07:04:05;;;;;;;14.80;3.40;;;;;;;;;;5041061;28;20033;-59
2023/07/11 07:06:35;;;;;;;11.35;2.20;;;;;;;;;;5011376;28;20041;-60
2023/07/11 07:09:04;;;;;;;16.67;2.40;;;;;;;;;;5030464;28;20119;-60
2023/07/11 07:11:32;;;;;;;15.70;3.00;;;;;;;;;;5014168;28;20041;-59
2023/07/11 07:14:00;;;;;;;10.05;2.72;;;;;;;;;;5034076;28;20041;-59
2023/07/11 07:16:33;;;;;;;10.02;2.40;;;;;;;;;;5028859;28;20064;-59
2023/07/11 07:19:01;;;;;;;10.13;2.40;;;;;;;;;;5041863;28;20072;-60
2023/07/11 07:21:29;;;;;;;10.27;2.70;;;;;;;;;;5036017;28;20032;-59
2023/07/11 07:23:59;;;;;;;15.50;2.80;;;;;;;;;;5034222;28;20129;-60
2023/07/11 07:26:26;;;;;;;13.55;2.60;;;;;;;;;;5019245;28;20045;-59
2023/07/11 07:28:54;;;;;;;10.90;2.65;;;;;;;;;;5032698;28;20047;-59
2023/07/11 07:31:24;;;;;;;8.55;2.25;;;;;;;;;;5028169;28;20060;-59
2023/07/11 07:33:52;;;;;;;9.17;2.20;;;;;;;;;;5019164;28;20569;-60
2023/07/11 07:36:19;;;;;;;13.25;3.03;;;;;;;;;;5027235;28;20044;-60
2023/07/11 07:38:48;;;;;;;12.95;2.95;;;;;;;;;;5033887;28;20182;-60
2023/07/11 07:41:18;;;;;;;10.43;2.80;;;;;;;;;;5029880;28;20037;-61
2023/07/11 07:43:46;;;;;;;12.98;3.13;;;;;;;;;;5033353;28;20155;-60
2023/07/11 07:46:15;;;;;;;10.53;2.70;;;;;;;;;;5033270;28;20041;-60
2023/07/11 07:48:44;;;;;;;14.25;2.80;;;;;;;;;;5010712;28;20095;-60
2023/07/11 07:51:13;;;;;;;11.73;3.08;;;;;;;;;;5036519;28;20045;-60
2023/07/11 07:53:41;;;;;;;9.48;2.65;;;;;;;;;;5029024;28;20114;-60
2023/07/11 07:56:10;;;;;;;11.95;2.60;;;;;;;;;;5037331;28;20521;-59
2023/07/11 07:58:40;;;;;;;19.43;3.27;;;;;;;;;;5018194;28;20041;-59
2023/07/11 08:01:11;;;;;;;10.45;2.45;;;;;;;;;;5028500;28;20041;-59
2023/07/11 08:03:39;;;;;;;12.70;3.57;;;;;;;;;;4661260;28;9999846;-59
2023/07/11 08:06:08;;;;;;;17.33;3.22;;;;;;;;;;5039171;28;20574;-59
2023/07/11 08:08:39;;;;;;;15.77;2.78;;;;;;;;;;5030883;28;20056;-59
2023/07/11 08:11:07;;;;;;;15.10;3.08;;;;;;;;;;5042113;28;20572;-60
2023/07/11 08:13:40;;;;;;;11.83;2.60;;;;;;;;;;5044510;28;20049;-59
2023/07/11 08:16:25;;;;;;;13.40;3.65;;;;;;;;;;5014997;28;20491;-59
2023/07/11 08:19:01;;;;;;;13.43;2.78;;;;;;;;;;4326817;28;10000041;-59
2023/07/11 08:21:29;;;;;;;9.98;2.30;;;;;;;;;;5011505;28;20114;-59
2023/07/11 08:23:57;;;;;;;12.47;2.70;;;;;;;;;;5030549;28;20127;-59
2023/07/11 08:26:25;;;;;;;10.23;2.88;;;;;;;;;;5017406;28;20055;-59
2023/07/11 08:28:54;;;;;;;15.98;3.20;;;;;;;;;;5018056;28;20037;-60
2023/07/11 08:31:23;;;;;;;11.18;2.55;;;;;;;;;;5024891;28;20037;-60
2023/07/11 08:33:51;;;;;;;11.60;2.40;;;;;;;;;;5024523;28;20078;-59
2023/07/11 08:36:20;;;;;;;13.70;2.83;;;;;;;;;;5042337;28;20125;-59
2023/07/11 08:38:48;;;;;;;12.57;2.80;;;;;;;;;;5033175;28;20045;-60
2023/07/11 08:41:25;;;;;;;13.07;3.05;;;;;;;;;;5038010;28;20056;-59
2023/07/11 08:43:58;;;;;;;13.68;3.42;;;;;;;;;;5025117;28;20041;-59
2023/07/11 08:46:27;;;;;;;12.73;3.20;;;;;;;;;;5023551;28;20037;-59
2023/07/11 08:48:59;;;;;;;14.30;2.60;;;;;;;;;;5033831;28;21780;-60
2023/07/11 08:51:40;;;;;;;11.32;2.88;;;;;;;;;;5033555;28;20040;-59
2023/07/11 08:54:11;;;;;;;11.73;2.75;;;;;;;;;;5022473;28;20049;-59
2023/07/11 08:56:41;;;;;;;13.98;2.70;;;;;;;;;;5029948;28;20041;-60
2023/07/11 08:59:14;;;;;;;16.02;3.17;;;;;;;;;;5029126;28;20122;-60
2023/07/11 09:01:44;;;;;;;18.00;3.50;;;;;;;;;;5006964;28;20507;-60
2023/07/11 09:04:15;;;;;;;11.63;2.75;;;;;;;;;;5031271;28;20036;-59
2023/07/11 09:06:45;;;;;;;13.75;2.85;;;;;;;;;;5014139;28;20375;-60
2023/07/11 09:09:13;;;;;;;11.43;2.50;;;;;;;;;;5047158;28;20051;-60
2023/07/11 09:11:46;;;;;;;17.08;2.85;;;;;;;;;;5027228;28;20041;-60
2023/07/11 09:14:25;;;;;;;13.90;3.07;;;;;;;;;;5029394;28;20095;-59
2023/07/11 09:16:58;;;;;;;10.02;2.55;;;;;;;;;;5036413;28;20040;-59
2023/07/11 09:19:31;;;;;;;14.45;2.47;;;;;;;;;;5030491;28;20044;-59
2023/07/11 09:22:05;;;;;;;11.27;2.78;;;;;;;;;;5032247;28;20502;-60
2023/07/11 09:24:38;;;;;;;8.50;2.10;;;;;;;;;;5020245;28;20797;-59
2023/07/11 09:27:09;;;;;;;15.40;3.20;;;;;;;;;;5038252;28;20128;-59
2023/07/11 09:29:39;;;;;;;11.63;3.15;;;;;;;;;;5012538;28;20048;-59
2023/07/11 09:32:09;;;;;;;11.85;2.30;;;;;;;;;;5030397;28;20063;-59
2023/07/11 09:34:42;;;;;;;9.60;2.50;;;;;;;;;;5030220;28;20053;-58
2023/07/11 09:37:13;;;;;;;12.57;2.17;;;;;;;;;;5033281;28;20037;-59
2023/07/11 09:39:43;;;;;;;15.00;2.90;;;;;;;;;;5040950;28;20045;-59
2023/07/11 09:42:18;;;;;;;12.23;2.92;;;;;;;;;;5034669;28;20037;-59
2023/07/11 09:44:59;;;;;;;10.88;2.55;;;;;;;;;;5027778;28;20087;-60
2023/07/11 09:47:30;;;;;;;16.77;2.67;;;;;;;;;;5018341;28;20208;-59
2023/07/11 09:49:59;;;;;;;17.48;3.70;;;;;;;;;;5036627;28;20051;-59
2023/07/11 09:52:27;;;;;;;10.37;2.70;;;;;;;;;;5019946;28;20502;-59
2023/07/11 09:54:56;;;;;;;14.48;2.40;;;;;;;;;;5035134;28;20064;-59
2023/07/11 09:57:35;;;;;;;14.63;2.40;;;;;;;;;;5036763;28;20512;-60
2023/07/11 10:00:09;;;;;;;13.48;2.33;;;;;;;;;;5015881;28;20036;-60
2023/07/11 10:02:45;;;;;;;8.55;1.83;;;;;;;;;;5019051;28;20056;-59
2023/07/11 10:05:17;;;;;;;11.43;2.63;;;;;;;;;;5016909;28;20040;-59
2023/07/11 10:07:47;;;;;;;11.00;2.30;;;;;;;;;;5024583;28;20047;-60
2023/07/11 10:10:15;;;;;;;12.15;2.33;;;;;;;;;;5020438;28;20082;-60
2023/07/11 10:12:45;;;;;;;11.27;2.40;;;;;;;;;;5010602;28;20118;-60
2023/07/11 10:15:16;;;;;;;10.23;2.08;;;;;;;;;;5022562;28;20090;-60
2023/07/11 10:17:45;;;;;;;9.80;2.57;;;;;;;;;;5021500;28;20048;-60
2023/07/11 10:20:16;;;;;;;14.45;2.53;;;;;;;;;;4663149;28;10000387;-60
2023/07/11 10:22:48;;;;;;;10.15;2.10;;;;;;;;;;5019499;28;20054;-60
2023/07/11 10:25:18;;;;;;;7.85;2.45;;;;;;;;;;5019956;28;20048;-57
2023/07/11 10:27:49;;;;;;;13.52;2.35;;;;;;;;;;5017929;28;20388;-60
2023/07/11 10:30:20;;;;;;;10.70;2.10;;;;;;;;;;5015395;28;20048;-59
2023/07/11 10:32:56;;;;;;;13.35;2.33;;;;;;;;;;5017358;28;20562;-60
2023/07/11 10:35:35;;;;;;;9.20;3.05;;;;;;;;;;5019809;28;20056;-60
2023/07/11 10:38:05;;;;;;;9.90;2.28;;;;;;;;;;5033411;28;20059;-60
2023/07/11 10:40:35;;;;;;;14.75;2.95;;;;;;;;;;5014118;28;20051;-60
2023/07/11 10:43:06;;;;;;;10.03;2.20;;;;;;;;;;5030935;28;20116;-60
2023/07/11 10:45:39;;;;;;;8.77;2.22;;;;;;;;;;5019681;28;20060;-60
2023/07/11 10:48:11;;;;;;;9.93;3.05;;;;;;;;;;5031436;28;20048;-60
2023/07/11 10:50:42;;;;;;;11.68;2.70;;;;;;;;;;5013548;28;20056;-59
2023/07/11 10:53:15;;;;;;;8.93;2.42;;;;;;;;;;5033530;28;20225;-60
2023/07/11 10:55:45;;;;;;;12.57;2.30;;;;;;;;;;5023683;28;20036;-60
2023/07/11 10:58:17;;;;;;;8.68;2.33;;;;;;;;;;5031363;28;20090;-60
2023/07/11 11:00:50;;;;;;;12.82;2.85;;;;;;;;;;5017972;28;20055;-60
2023/07/11 11:03:24;;;;;;;13.68;3.03;;;;;;;;;;5010084;28;20637;-60
2023/07/11 11:05:56;;;;;;;13.52;3.15;;;;;;;;;;5027685;28;20052;-60
2023/07/11 11:08:27;;;;;;;11.77;2.60;;;;;;;;;;5014031;28;20044;-60
2023/07/11 11:10:59;;;;;;;11.48;2.60;;;;;;;;;;5025250;28;20044;-60
2023/07/11 11:13:32;;;;;;;16.30;3.00;;;;;;;;;;5019441;28;20587;-59
2023/07/11 11:16:09;;;;;;;11.75;3.13;;;;;;;;;;5031683;28;20494;-60
2023/07/11 11:18:47;;;;;;;9.82;2.25;;;;;;;;;;5031274;28;20051;-60
2023/07/11 11:21:20;;;;;;;12.20;3.10;;;;;;;;;;5018298;28;21309;-60
2023/07/11 11:24:12;;;;;;;11.73;3.05;;;;;;;;;;5035529;28;20036;-60
2023/07/11 11:26:43;;;;;;;18.50;3.63;;;;;;;;;;5025628;28;20055;-60
2023/07/11 11:29:17;;;;;;;14.43;3.15;;;;;;;;;;5011750;28;20072;-60
2023/07/11 11:31:50;;;;;;;14.27;3.00;;;;;;;;;;5025359;28;21514;-60
2023/07/11 11:34:29;;;;;;;9.33;2.40;;;;;;;;;;5004626;28;20058;-60
2023/07/11 11:37:05;;;;;;;12.50;2.58;;;;;;;;;;5029132;28;20041;-60
2023/07/11 11:39:37;;;;;;;10.43;2.53;;;;;;;;;;5015556;28;20106;-60
2023/07/11 11:42:06;;;;;;;11.45;2.42;;;;;;;;;;5011194;28;20063;-60
2023/07/11 11:44:39;;;;;;;11.60;2.65;;;;;;;;;;5023644;28;20041;-60
2023/07/11 11:47:11;;;;;;;11.13;3.23;;;;;;;;;;5008497;28;20051;-60
2023/07/11 11:49:59;;;;;;;15.15;3.03;;;;;;;;;;5021418;28;20193;-59
2023/07/11 11:52:32;;;;;;;14.60;3.50;;;;;;;;;;5010918;28;20086;-59
2023/07/11 11:55:26;;;;;;;11.90;3.15;;;;;;;;;;5020383;28;20040;-59
2023/07/11 11:57:54;;;;;;;14.35;3.38;;;;;;;;;;5021841;28;20060;-60
2023/07/11 12:00:32;;;;;;;12.43;3.87;;;;;;;;;;5013138;28;20236;-60
2023/07/11 12:03:01;;;;;;;18.42;3.55;;;;;;;;;;5027473;28;20044;-59
2023/07/11 12:05:31;;;;;;;9.02;2.25;;;;;;;;;;5025250;28;20571;-60
2023/07/11 12:08:17;;;;;;;10.38;3.25;;;;;;;;;;5024328;28;20052;-60
2023/07/11 12:11:01;;;;;;;9.52;2.38;;;;;;;;;;5015891;28;20045;-60
2023/07/11 12:13:29;;;;;;;10.07;2.87;;;;;;;;;;5004598;28;20045;-59
2023/07/11 12:15:58;;;;;;;12.15;3.38;;;;;;;;;;5011187;28;20127;-59
2023/07/11 12:18:45;;;;;;;11.02;3.10;;;;;;;;;;5005383;28;20048;-59
2023/07/11 12:21:24;;;;;;;8.77;2.72;;;;;;;;;;5015039;28;20766;-59
2023/07/11 12:23:53;;;;;;;13.82;2.90;;;;;;;;;;5034980;28;20070;-60
2023/07/11 12:26:41;;;;;;;17.10;2.93;;;;;;;;;;5028480;28;20101;-59
2023/07/11 12:29:27;;;;;;;8.82;2.38;;;;;;;;;;5008406;28;20115;-59
2023/07/11 12:32:13;;;;;;;13.80;3.47;;;;;;;;;;5027158;28;20048;-59
2023/07/11 12:34:42;;;;;;;11.48;2.90;;;;;;;;;;5031226;28;20153;-59
2023/07/11 12:37:12;;;;;;;10.68;2.85;;;;;;;;;;5023914;28;20046;-59
2023/07/11 12:39:45;;;;;;;11.40;2.40;;;;;;;;;;5015218;28;20063;-59
2023/07/11 12:42:18;;;;;;;13.65;3.28;;;;;;;;;;5016831;28;20585;-60
2023/07/11 12:44:46;;;;;;;13.05;2.92;;;;;;;;;;5021375;28;20048;-59
2023/07/11 12:47:15;;;;;;;14.02;3.28;;;;;;;;;;5012399;28;20051;-59
2023/07/11 12:49:44;;;;;;;12.05;3.70;;;;;;;;;;5014586;28;20557;-59
2023/07/11 12:52:15;;;;;;;10.80;2.43;;;;;;;;;;5016425;28;20638;-58
2023/07/11 12:54:44;;;;;;;15.43;2.92;;;;;;;;;;5023548;28;20467;-59
2023/07/11 12:57:13;;;;;;;18.27;4.28;;;;;;;;;;5026076;28;20036;-58
2023/07/11 12:59:45;;;;;;;12.07;2.85;;;;;;;;;;4640968;28;10000095;-59
2023/07/11 13:02:16;;;;;;;11.43;2.80;;;;;;;;;;5032575;28;20041;-59
2023/07/11 13:04:47;;;;;;;10.25;2.67;;;;;;;;;;5013424;28;20570;-59
2023/07/11 13:07:21;;;;;;;11.63;2.70;;;;;;;;;;5030698;28;20723;-58
2023/07/11 13:09:50;;;;;;;12.05;3.38;;;;;;;;;;5009626;28;20137;-58
2023/07/11 13:12:19;;;;;;;14.23;3.25;;;;;;;;;;5025969;28;20569;-59
2023/07/11 13:14:47;;;;;;;13.70;3.20;;;;;;;;;;4659875;28;9999863;-59
2023/07/11 13:17:15;;;;;;;18.50;3.35;;;;;;;;;;5016198;28;20877;-59
2023/07/11 13:19:44;;;;;;;8.88;2.40;;;;;;;;;;5009717;28;20133;-59
2023/07/11 13:22:16;;;;;;;9.70;2.40;;;;;;;;;;5023704;28;20682;-61
2023/07/11 13:24:45;;;;;;;14.48;3.17;;;;;;;;;;5025358;28;20265;-59
2023/07/11 13:27:17;;;;;;;11.32;2.13;;;;;;;;;;5029494;28;20063;-59
2023/07/11 13:29:50;;;;;;;11.85;2.65;;;;;;;;;;5006133;28;20028;-59
2023/07/11 13:32:20;;;;;;;10.05;2.05;;;;;;;;;;5016600;28;20346;-60
2023/07/11 13:34:49;;;;;;;19.50;2.90;;;;;;;;;;5029220;28;20059;-58
2023/07/11 13:37:21;;;;;;;10.60;2.53;;;;;;;;;;5014878;28;20072;-57
2023/07/11 13:39:50;;;;;;;14.80;2.60;;;;;;;;;;4985805;28;20055;-58
2023/07/11 13:42:18;;;;;;;14.30;3.20;;;;;;;;;;5039927;28;20139;-58
2023/07/11 13:44:50;;;;;;;12.45;2.50;;;;;;;;;;5012741;28;20041;-59
2023/07/11 13:47:21;;;;;;;10.10;2.53;;;;;;;;;;5036053;28;20127;-60
2023/07/11 13:49:57;;;;;;;9.93;2.70;;;;;;;;;;5021787;28;20045;-59
2023/07/11 13:52:27;;;;;;;9.68;2.40;;;;;;;;;;5020088;28;20048;-59
2023/07/11 13:54:57;;;;;;;11.07;2.78;;;;;;;;;;5039456;28;20045;-59
2023/07/11 13:57:24;;;;;;;11.75;2.40;;;;;;;;;;5043362;28;20040;-59
2023/07/11 13:59:52;;;;;;;10.93;3.00;;;;;;;;;;5009316;28;20045;-59
2023/07/11 14:02:39;;;;;;;10.45;2.40;;;;;;;;;;5003014;28;20736;-59
2023/07/11 14:05:14;;;;;;;9.50;2.85;;;;;;;;;;5033525;28;20128;-59
2023/07/11 14:07:41;;;;;;;15.50;2.60;;;;;;;;;;5033094;28;20043;-59
2023/07/11 14:10:13;;;;;;;7.82;2.40;;;;;;;;;;5024692;28;20041;-59
2023/07/11 14:12:41;;;;;;;13.50;2.67;;;;;;;;;;5030005;28;20135;-60
2023/07/11 14:15:14;;;;;;;8.60;2.10;;;;;;;;;;5026279;28;20037;-60
2023/07/11 14:17:41;;;;;;;13.75;2.92;;;;;;;;;;5032123;28;20047;-60
2023/07/11 14:20:13;;;;;;;14.05;3.70;;;;;;;;;;5028630;28;20087;-60
2023/07/11 14:22:41;;;;;;;9.80;2.53;;;;;;;;;;5034243;28;20047;-60
2023/07/11 14:25:14;;;;;;;12.70;3.10;;;;;;;;;;5035323;28;20047;-59
2023/07/11 14:27:42;;;;;;;12.68;2.72;;;;;;;;;;5034940;28;20623;-59
2023/07/11 14:30:10;;;;;;;13.73;2.83;;;;;;;;;;5049795;28;20036;-59
2023/07/11 14:32:38;;;;;;;15.52;2.92;;;;;;;;;;5037179;28;20711;-58
2023/07/11 14:35:13;;;;;;;12.45;2.63;;;;;;;;;;5049364;28;20048;-59
2023/07/11 14:37:40;;;;;;;11.70;2.60;;;;;;;;;;5027838;28;20124;-59
2023/07/11 14:40:15;;;;;;;13.43;2.85;;;;;;;;;;5044670;28;20047;-60
2023/07/11 14:42:44;;;;;;;13.38;2.60;;;;;;;;;;5042615;28;20044;-59
2023/07/11 14:45:16;;;;;;;9.45;2.53;;;;;;;;;;5043469;28;20051;-59
2023/07/11 14:47:45;;;;;;;10.00;2.25;;;;;;;;;;5025239;28;20120;-59
2023/07/11 14:50:15;;;;;;;10.20;2.70;;;;;;;;;;5039441;28;20526;-60
2023/07/11 14:52:43;;;;;;;11.82;2.50;;;;;;;;;;5020464;28;20357;-59